sensor_id;sensor_type;location;lat;lon;timestamp;temperature;humidity
20777;DHT22;10548;47.504;8.248;2023-11-19T00:00:33;7.40;99.90
20777;DHT22;10548;47.504;8.248;2023-11-19T00:03:00;7.40;99.90
20777;DHT22;10548;47.504;8.248;2023-11-19T00:05:28;7.40;99.90
20777;DHT22;10548;47.504;8.248;2023-11-19T00:07:55;7.40;99.90
20777;DHT22;10548;47.504;8.248;2023-11-19T00:10:23;7.50;99.90
20777;DHT22;10548;47.504;8.248;2023-11-19T00:12:50;7.50;99.90
20777;DHT22;10548;47.504;8.248;2023-11-19T00:15:18;7.50;99.90
20777;DHT22;10548;47.504;8.248;2023-11-19T00:17:47;7.60;99.90
20777;DHT22;10548;47.504;8.248;2023-11-19T00:20:17;7.60;99.90
20777;DHT22;10548;47.504;8.248;2023-11-19T00:22:45;7.50;99.90
20777;DHT22;10548;47.504;8.248;2023-11-19T00:37:43;7.70;99.90
20777;DHT22;10548;47.504;8.248;2023-11-19T00:40:13;7.80;99.90
20777;DHT22;10548;47.504;8.248;2023-11-19T00:42:41;7.80;99.90
20777;DHT22;10548;47.504;8.248;2023-11-19T00:45:09;7.70;99.90
20777;DHT22;10548;47.504;8.248;2023-11-19T00:47:38;7.80;99.90
20777;DHT22;10548;47.504;8.248;2023-11-19T01:04:56;8.00;99.90
20777;DHT22;10548;47.504;8.248;2023-11-19T01:07:23;7.90;99.90
20777;DHT22;10548;47.504;8.248;2023-11-19T01:09:51;7.90;99.90
20777;DHT22;10548;47.504;8.248;2023-11-19T01:12:18;7.90;99.90
20777;DHT22;10548;47.504;8.248;2023-11-19T01:14:45;7.90;99.90
20777;DHT22;10548;47.504;8.248;2023-11-19T01:17:12;7.90;99.90
20777;DHT22;10548;47.504;8.248;2023-11-19T01:19:39;7.90;99.90
20777;DHT22;10548;47.504;8.248;2023-11-19T01:24:35;7.90;99.90
20777;DHT22;10548;47.504;8.248;2023-11-19T01:27:02;7.80;99.90
20777;DHT22;10548;47.504;8.248;2023-11-19T01:29:29;7.80;99.90
20777;DHT22;10548;47.504;8.248;2023-11-19T01:31:57;7.80;99.90
20777;DHT22;10548;47.504;8.248;2023-11-19T01:34:24;7.80;99.90
20777;DHT22;10548;47.504;8.248;2023-11-19T01:36:51;7.80;99.90
20777;DHT22;10548;47.504;8.248;2023-11-19T01:39:18;7.80;99.90
20777;DHT22;10548;47.504;8.248;2023-11-19T01:44:14;7.80;99.90
20777;DHT22;10548;47.504;8.248;2023-11-19T02:09:11;8.10;99.90
20777;DHT22;10548;47.504;8.248;2023-11-19T02:11:40;8.00;99.90
20777;DHT22;10548;47.504;8.248;2023-11-19T02:14:07;8.00;99.90
20777;DHT22;10548;47.504;8.248;2023-11-19T02:19:02;8.10;99.90
20777;DHT22;10548;47.504;8.248;2023-11-19T02:21:30;8.00;99.90
20777;DHT22;10548;47.504;8.248;2023-11-19T02:23:58;8.00;99.90
20777;DHT22;10548;47.504;8.248;2023-11-19T02:27:00;8.00;99.90
20777;DHT22;10548;47.504;8.248;2023-11-19T02:29:29;8.10;99.90
20777;DHT22;10548;47.504;8.248;2023-11-19T02:31:56;8.10;99.90
20777;DHT22;10548;47.504;8.248;2023-11-19T02:39:20;8.00;99.90
20777;DHT22;10548;47.504;8.248;2023-11-19T05:45:11;8.30;99.90
20777;DHT22;10548;47.504;8.248;2023-11-19T05:47:39;9.10;99.90
20777;DHT22;10548;47.504;8.248;2023-11-19T05:50:06;9.10;99.90
20777;DHT22;10548;47.504;8.248;2023-11-19T05:52:35;9.20;99.90
20777;DHT22;10548;47.504;8.248;2023-11-19T05:55:02;9.20;99.90
20777;DHT22;10548;47.504;8.248;2023-11-19T05:57:37;9.20;99.90
20777;DHT22;10548;47.504;8.248;2023-11-19T06:22:31;9.20;99.90
20777;DHT22;10548;47.504;8.248;2023-11-19T06:24:58;9.40;99.90
20777;DHT22;10548;47.504;8.248;2023-11-19T06:27:27;9.50;99.90
20777;DHT22;10548;47.504;8.248;2023-11-19T06:29:54;9.50;99.90
20777;DHT22;10548;47.504;8.248;2023-11-19T06:32:21;9.50;99.90
20777;DHT22;10548;47.504;8.248;2023-11-19T06:34:48;9.50;99.90
20777;DHT22;10548;47.504;8.248;2023-11-19T06:37:16;9.50;99.90
20777;DHT22;10548;47.504;8.248;2023-11-19T06:39:43;9.50;99.90
20777;DHT22;10548;47.504;8.248;2023-11-19T06:42:11;9.50;99.90
20777;DHT22;10548;47.504;8.248;2023-11-19T06:44:38;9.50;99.90
20777;DHT22;10548;47.504;8.248;2023-11-19T06:47:06;9.60;99.90
20777;DHT22;10548;47.504;8.248;2023-11-19T06:49:33;9.60;99.90
20777;DHT22;10548;47.504;8.248;2023-11-19T06:52:00;9.60;99.90
20777;DHT22;10548;47.504;8.248;2023-11-19T06:54:28;9.80;99.90
20777;DHT22;10548;47.504;8.248;2023-11-19T06:56:55;9.80;99.90
20777;DHT22;10548;47.504;8.248;2023-11-19T06:59:24;9.80;99.90
20777;DHT22;10548;47.504;8.248;2023-11-19T07:01:51;9.80;99.90
20777;DHT22;10548;47.504;8.248;2023-11-19T07:04:18;10.00;99.90
20777;DHT22;10548;47.504;8.248;2023-11-19T07:06:45;9.90;99.90
20777;DHT22;10548;47.504;8.248;2023-11-19T07:09:13;9.90;99.90
20777;DHT22;10548;47.504;8.248;2023-11-19T07:11:41;10.00;99.90
20777;DHT22;10548;47.504;8.248;2023-11-19T07:14:09;10.00;99.90
20777;DHT22;10548;47.504;8.248;2023-11-19T07:16:36;9.90;99.90
20777;DHT22;10548;47.504;8.248;2023-11-19T07:19:07;10.00;99.90
20777;DHT22;10548;47.504;8.248;2023-11-19T07:21:35;10.00;99.90
20777;DHT22;10548;47.504;8.248;2023-11-19T07:24:06;10.00;99.90
20777;DHT22;10548;47.504;8.248;2023-11-19T07:26:34;10.00;99.90
20777;DHT22;10548;47.504;8.248;2023-11-19T07:29:01;10.00;99.90
20777;DHT22;10548;47.504;8.248;2023-11-19T07:31:28;10.00;99.90
20777;DHT22;10548;47.504;8.248;2023-11-19T07:33:56;10.10;99.90
20777;DHT22;10548;47.504;8.248;2023-11-19T07:36:23;10.10;99.90
20777;DHT22;10548;47.504;8.248;2023-11-19T07:38:50;10.10;99.90
20777;DHT22;10548;47.504;8.248;2023-11-19T07:41:17;10.20;99.90
20777;DHT22;10548;47.504;8.248;2023-11-19T07:43:44;10.20;99.90
20777;DHT22;10548;47.504;8.248;2023-11-19T08:01:04;10.20;99.90
20777;DHT22;10548;47.504;8.248;2023-11-19T08:03:31;10.20;99.90
20777;DHT22;10548;47.504;8.248;2023-11-19T08:06:02;10.20;99.90
20777;DHT22;10548;47.504;8.248;2023-11-19T08:08:30;10.20;99.90
20777;DHT22;10548;47.504;8.248;2023-11-19T08:11:00;10.20;99.90
20777;DHT22;10548;47.504;8.248;2023-11-19T08:13:27;10.20;99.90
20777;DHT22;10548;47.504;8.248;2023-11-19T10:22:05;10.30;99.90
20777;DHT22;10548;47.504;8.248;2023-11-19T10:29:30;11.50;99.90
20777;DHT22;10548;47.504;8.248;2023-11-19T10:32:06;11.50;99.90
20777;DHT22;10548;47.504;8.248;2023-11-19T10:35:04;11.50;99.90
20777;DHT22;10548;47.504;8.248;2023-11-19T10:37:32;11.40;99.90
20777;DHT22;10548;47.504;8.248;2023-11-19T10:40:00;11.40;99.90
20777;DHT22;10548;47.504;8.248;2023-11-19T10:42:27;11.50;99.90
20777;DHT22;10548;47.504;8.248;2023-11-19T10:44:54;11.50;99.90
20777;DHT22;10548;47.504;8.248;2023-11-19T11:02:23;11.60;99.90
20777;DHT22;10548;47.504;8.248;2023-11-19T11:04:51;11.90;99.90
20777;DHT22;10548;47.504;8.248;2023-11-19T11:07:21;12.00;99.90
20777;DHT22;10548;47.504;8.248;2023-11-19T11:10:02;12.00;99.90
20777;DHT22;10548;47.504;8.248;2023-11-19T11:12:36;12.00;99.90
20777;DHT22;10548;47.504;8.248;2023-11-19T11:15:06;12.00;99.90
20777;DHT22;10548;47.504;8.248;2023-11-19T11:17:34;12.00;99.90
20777;DHT22;10548;47.504;8.248;2023-11-19T11:20:02;12.00;99.90
20777;DHT22;10548;47.504;8.248;2023-11-19T11:22:49;12.10;99.90
20777;DHT22;10548;47.504;8.248;2023-11-19T12:32:53;12.10;99.90
20777;DHT22;10548;47.504;8.248;2023-11-19T12:35:22;12.90;99.90
20777;DHT22;10548;47.504;8.248;2023-11-19T12:37:51;12.90;99.90
20777;DHT22;10548;47.504;8.248;2023-11-19T14:23:26;13.00;99.90
20777;DHT22;10548;47.504;8.248;2023-11-19T14:25:54;16.50;99.90
20777;DHT22;10548;47.504;8.248;2023-11-19T14:28:22;17.00;99.90
20777;DHT22;10548;47.504;8.248;2023-11-19T14:30:50;16.60;99.90
20777;DHT22;10548;47.504;8.248;2023-11-19T14:33:21;15.00;99.90
20777;DHT22;10548;47.504;8.248;2023-11-19T17:29:25;16.00;99.90
20777;DHT22;10548;47.504;8.248;2023-11-19T22:06:37;12.80;99.90
20777;DHT22;10548;47.504;8.248;2023-11-19T22:09:04;12.80;99.90
20777;DHT22;10548;47.504;8.248;2023-11-19T22:11:32;12.50;99.90
20777;DHT22;10548;47.504;8.248;2023-11-19T22:18:55;12.60;99.90
